createdAt,value
2018-03-14T00:38:00.517Z,15.30
2018-03-14T00:40:28.045Z,16.20
2018-03-14T00:42:55.570Z,17.57
2018-03-14T00:45:23.040Z,14.63
2018-03-14T00:47:51.466Z,15.30
2018-03-14T00:50:18.973Z,12.97
2018-03-14T00:52:46.492Z,13.67
2018-03-14T00:55:13.999Z,15.17
2018-03-14T00:57:41.721Z,14.53
2018-03-14T01:00:09.294Z,16.80
2018-03-14T01:02:37.222Z,15.90
2018-03-14T01:05:04.795Z,12.47
2018-03-14T01:07:32.482Z,14.17
2018-03-14T01:10:00.562Z,13.17
2018-03-14T01:12:28.956Z,15.03
2018-03-14T01:14:56.483Z,17.20
2018-03-14T01:17:24.002Z,17.33
2018-03-14T01:19:51.537Z,15.90
2018-03-14T01:22:19.238Z,14.33
2018-03-14T01:24:47.043Z,18.20
2018-03-14T01:27:14.741Z,13.97
2018-03-14T01:29:42.393Z,15.13
2018-03-14T01:32:09.892Z,22.63
2018-03-14T01:34:37.428Z,17.27
2018-03-14T01:37:04.929Z,17.87
2018-03-14T01:39:32.569Z,19.00
2018-03-14T01:42:00.154Z,22.73
2018-03-14T01:44:27.661Z,18.60
2018-03-14T01:46:55.173Z,22.43
2018-03-14T01:49:23.034Z,16.00
2018-03-14T01:51:50.550Z,21.53
2018-03-14T01:54:18.294Z,17.10
2018-03-14T01:56:45.798Z,15.43
2018-03-14T01:59:13.306Z,13.73
2018-03-14T02:01:40.809Z,18.97
2018-03-14T02:04:08.353Z,15.00
2018-03-14T02:06:35.861Z,16.77
2018-03-14T02:09:03.492Z,15.03
2018-03-14T02:11:31.001Z,18.37
2018-03-14T02:13:58.543Z,14.87
2018-03-14T02:16:26.049Z,13.73
2018-03-14T02:18:53.566Z,18.20
2018-03-14T02:21:21.071Z,16.50
2018-03-14T02:23:48.577Z,15.50
2018-03-14T02:26:16.108Z,20.37
2018-03-14T02:28:43.623Z,16.33
2018-03-14T02:31:11.130Z,17.50
2018-03-14T02:33:38.652Z,27.77
2018-03-14T02:36:06.170Z,26.73
2018-03-14T02:38:33.737Z,29.00
2018-03-14T02:41:01.632Z,26.33
2018-03-14T02:43:29.439Z,19.57
2018-03-14T02:45:57.003Z,16.70
2018-03-14T02:48:24.491Z,15.43
2018-03-14T02:50:51.986Z,15.10
2018-03-14T02:53:19.470Z,16.43
2018-03-14T02:55:46.954Z,11.67
2018-03-14T02:58:14.440Z,12.10
2018-03-14T03:00:41.925Z,13.20
2018-03-14T03:03:09.426Z,16.43
2018-03-14T03:05:36.948Z,10.67
2018-03-14T03:08:04.445Z,12.97
2018-03-14T03:10:31.949Z,13.03
2018-03-14T03:12:59.445Z,11.07
2018-03-14T03:15:26.922Z,12.63
2018-03-14T03:17:54.452Z,15.20
2018-03-14T03:20:22.007Z,12.70
2018-03-14T03:22:49.489Z,16.50
2018-03-14T03:25:16.969Z,16.93
2018-03-14T03:27:44.463Z,11.53
2018-03-14T03:30:11.959Z,14.10
2018-03-14T03:32:39.451Z,12.50
2018-03-14T03:35:06.946Z,11.33
2018-03-14T03:37:34.427Z,16.50
2018-03-14T03:40:01.942Z,13.43
2018-03-14T03:42:29.509Z,14.30
2018-03-14T03:44:56.989Z,10.83
2018-03-14T03:47:24.473Z,12.10
2018-03-14T03:49:52.110Z,12.83
2018-03-14T03:52:19.593Z,11.17
2018-03-14T03:54:47.092Z,9.27
2018-03-14T03:57:14.573Z,10.07
2018-03-14T03:59:42.082Z,10.70
2018-03-14T04:02:09.582Z,12.63
2018-03-14T04:04:37.074Z,14.63
2018-03-14T04:07:04.563Z,13.93
2018-03-14T04:09:32.060Z,14.23
2018-03-14T04:11:59.550Z,15.97
2018-03-14T04:14:27.023Z,17.30
2018-03-14T04:16:54.524Z,11.13
2018-03-14T04:19:22.002Z,12.47
2018-03-14T04:21:49.565Z,11.67
2018-03-14T04:24:17.054Z,11.53
2018-03-14T04:26:44.533Z,8.43
2018-03-14T04:29:12.121Z,11.17
2018-03-14T04:31:39.622Z,12.57
2018-03-14T04:34:07.242Z,10.73
2018-03-14T04:36:34.734Z,10.90
2018-03-14T04:39:02.235Z,12.00
2018-03-14T04:41:29.793Z,12.97
2018-03-14T04:43:57.330Z,11.13
2018-03-14T04:46:24.850Z,14.03
2018-03-14T04:48:52.336Z,11.83
2018-03-14T04:51:19.817Z,15.43
2018-03-14T04:53:47.757Z,13.43
2018-03-14T04:56:15.238Z,11.03
2018-03-14T04:58:42.727Z,18.10
2018-03-14T05:01:10.223Z,12.83
2018-03-14T05:03:37.978Z,12.80
2018-03-14T05:06:05.633Z,12.20
2018-03-14T05:08:33.662Z,14.63
2018-03-14T05:11:01.142Z,11.93
2018-03-14T05:13:28.833Z,14.83
2018-03-14T05:15:56.488Z,16.33
2018-03-14T05:18:23.970Z,17.70
2018-03-14T05:20:51.477Z,13.60
2018-03-14T05:23:19.206Z,11.57
2018-03-14T05:25:46.749Z,11.53
2018-03-14T05:28:14.237Z,13.00
2018-03-14T05:30:41.729Z,13.43
2018-03-14T05:33:09.219Z,11.87
2018-03-14T05:35:37.049Z,11.67
2018-03-14T05:38:04.526Z,11.10
2018-03-14T05:40:32.024Z,12.87
2018-03-14T05:42:59.516Z,14.07
2018-03-14T05:45:27.093Z,13.80
2018-03-14T05:47:54.578Z,13.37
2018-03-14T05:50:22.082Z,17.83
2018-03-14T05:52:49.582Z,13.40
2018-03-14T05:55:17.176Z,18.63
2018-03-14T05:57:44.705Z,13.73
2018-03-14T06:00:12.186Z,14.93
2018-03-14T06:02:39.741Z,18.43
2018-03-14T06:05:07.250Z,14.27
2018-03-14T06:07:35.006Z,16.43
2018-03-14T06:10:02.485Z,14.40
2018-03-14T06:12:29.969Z,16.57
2018-03-14T06:14:57.461Z,16.10
2018-03-14T06:17:25.179Z,17.47
2018-03-14T06:19:52.661Z,18.97
2018-03-14T06:22:20.141Z,15.30
2018-03-14T06:24:47.629Z,12.00
2018-03-14T06:27:15.104Z,11.77
2018-03-14T06:29:43.121Z,8.60
2018-03-14T06:32:10.610Z,10.90
2018-03-14T06:34:38.098Z,24.50
2018-03-14T06:37:05.599Z,18.30
2018-03-14T06:39:33.094Z,16.80
2018-03-14T06:42:00.575Z,13.07
2018-03-14T06:44:28.064Z,8.33
2018-03-14T06:46:55.638Z,9.27
2018-03-14T06:49:23.149Z,13.70
2018-03-14T06:51:50.725Z,15.87
2018-03-14T06:54:18.224Z,11.87
2018-03-14T06:56:45.707Z,17.80
2018-03-14T06:59:18.926Z,18.73
2018-03-14T07:01:52.648Z,17.07
2018-03-14T07:04:25.941Z,14.27
2018-03-14T07:06:53.534Z,14.13
2018-03-14T07:09:21.026Z,11.20
2018-03-14T07:11:48.522Z,10.07
2018-03-14T07:14:16.010Z,12.93
2018-03-14T07:16:43.554Z,13.13
2018-03-14T07:19:11.307Z,22.53
2018-03-14T07:21:38.954Z,14.97
2018-03-14T07:24:06.469Z,16.87
2018-03-14T07:26:33.961Z,18.67
2018-03-14T07:29:01.461Z,21.00
2018-03-14T07:31:28.963Z,18.90
2018-03-14T07:33:56.756Z,16.57
2018-03-14T07:36:24.281Z,15.80
2018-03-14T07:38:51.777Z,15.10
2018-03-14T07:41:19.508Z,13.70
2018-03-14T07:43:46.988Z,10.80
2018-03-14T07:46:14.482Z,13.80
2018-03-14T07:48:42.042Z,13.23
2018-03-14T07:51:09.526Z,10.40
2018-03-14T07:53:37.002Z,13.70
2018-03-14T07:56:04.489Z,16.70
2018-03-14T07:58:31.981Z,13.83
2018-03-14T08:00:59.565Z,13.67
2018-03-14T08:03:27.074Z,13.87
2018-03-14T08:05:54.607Z,11.77
2018-03-14T08:08:22.162Z,14.23
2018-03-14T08:10:49.669Z,12.60
2018-03-14T08:13:17.161Z,15.30
2018-03-14T08:15:44.652Z,14.73
2018-03-14T08:18:12.142Z,15.87
2018-03-14T08:20:39.650Z,19.00
2018-03-14T08:23:07.136Z,15.13
2018-03-14T08:25:34.610Z,15.37
2018-03-14T08:28:02.314Z,18.97
2018-03-14T08:30:29.816Z,14.87
2018-03-14T08:32:57.321Z,14.30
2018-03-14T08:35:25.069Z,13.07
2018-03-14T08:37:52.622Z,21.27
2018-03-14T08:40:20.109Z,19.17
2018-03-14T08:42:47.790Z,22.00
2018-03-14T08:45:15.639Z,16.70
2018-03-14T08:47:43.124Z,10.80
2018-03-14T08:50:10.988Z,20.07
2018-03-14T08:52:38.476Z,14.77
2018-03-14T08:55:06.253Z,18.70
2018-03-14T08:57:33.755Z,15.37
2018-03-14T09:00:01.246Z,14.40
2018-03-14T09:02:28.864Z,15.20
2018-03-14T09:04:56.363Z,12.47
2018-03-14T09:07:23.862Z,12.77
2018-03-14T09:09:51.615Z,11.83
2018-03-14T09:12:19.282Z,9.53
2018-03-14T09:14:47.085Z,11.77
2018-03-14T09:17:14.787Z,13.43
2018-03-14T09:19:42.590Z,15.13
2018-03-14T09:22:10.083Z,14.50
2018-03-14T09:24:37.703Z,12.30
2018-03-14T09:27:05.402Z,9.40
2018-03-14T09:29:32.894Z,12.53
2018-03-14T09:32:00.385Z,13.23
2018-03-14T09:34:27.922Z,13.43
2018-03-14T09:36:55.628Z,13.63
2018-03-14T09:39:23.121Z,10.80
2018-03-14T09:41:51.324Z,13.07
2018-03-14T09:44:18.796Z,9.70
2018-03-14T09:46:46.273Z,9.40
2018-03-14T09:49:14.040Z,9.27
2018-03-14T09:51:41.945Z,12.47
2018-03-14T09:54:09.613Z,8.33
2018-03-14T09:56:37.436Z,7.10
2018-03-14T09:59:04.937Z,5.50
2018-03-14T10:01:32.548Z,7.13
2018-03-14T10:04:00.205Z,11.03
2018-03-14T10:06:27.689Z,5.00
2018-03-14T10:08:55.168Z,3.63
2018-03-14T10:11:22.658Z,4.57
2018-03-14T10:13:50.610Z,6.20
2018-03-14T10:16:18.106Z,6.03
2018-03-14T10:18:45.743Z,5.10
2018-03-14T10:21:13.222Z,6.07
2018-03-14T10:23:40.714Z,9.23
2018-03-14T10:26:08.194Z,5.83
2018-03-14T10:28:35.674Z,5.23
2018-03-14T10:31:03.163Z,4.83
2018-03-14T10:33:30.818Z,3.07
2018-03-14T10:35:58.518Z,7.50
2018-03-14T10:38:26.321Z,10.53
2018-03-14T10:40:53.876Z,7.53
2018-03-14T10:43:21.435Z,7.47
2018-03-14T10:45:48.960Z,5.80
2018-03-14T10:48:16.740Z,16.83
2018-03-14T10:50:44.241Z,5.73
2018-03-14T10:53:12.290Z,4.40
2018-03-14T10:55:40.682Z,4.93
2018-03-14T10:58:08.410Z,6.57
2018-03-14T11:00:41.886Z,7.00
2018-03-14T11:03:15.438Z,5.47
2018-03-14T11:05:42.934Z,3.70
2018-03-14T11:08:10.587Z,3.40
2018-03-14T11:10:38.249Z,6.10
2018-03-14T11:13:06.250Z,5.77
2018-03-14T11:15:34.122Z,6.10
2018-03-14T11:18:02.738Z,4.00
2018-03-14T11:20:30.247Z,5.03
2018-03-14T11:22:57.727Z,8.13
2018-03-14T11:25:25.220Z,4.10
2018-03-14T11:27:52.746Z,5.00
2018-03-14T11:30:20.241Z,4.80
2018-03-14T11:32:47.757Z,3.70
2018-03-14T11:35:15.278Z,5.33
2018-03-14T11:37:42.757Z,3.83
2018-03-14T11:40:10.253Z,2.27
2018-03-14T11:42:37.803Z,4.23
2018-03-14T11:45:05.287Z,2.53
2018-03-14T11:47:32.769Z,3.97
2018-03-14T11:50:00.494Z,3.50
2018-03-14T11:52:27.998Z,4.07
2018-03-14T11:54:55.628Z,3.67
2018-03-14T11:57:23.139Z,4.87
2018-03-14T11:59:50.623Z,4.07
2018-03-14T12:02:18.144Z,3.87
2018-03-14T12:04:45.849Z,6.17
2018-03-14T12:07:13.336Z,4.77
2018-03-14T12:09:40.829Z,5.37
2018-03-14T12:12:08.312Z,3.77
2018-03-14T12:14:35.789Z,8.83
2018-03-14T12:17:03.517Z,11.40
2018-03-14T12:19:31.366Z,4.93
2018-03-14T12:21:58.901Z,7.07
2018-03-14T12:24:26.392Z,4.77
2018-03-14T12:26:53.860Z,6.17
2018-03-14T12:29:21.604Z,3.40
2018-03-14T12:31:49.242Z,7.33
2018-03-14T12:34:16.899Z,6.13
2018-03-14T12:36:44.550Z,4.73
2018-03-14T12:39:12.060Z,5.93
2018-03-14T12:41:39.561Z,6.17
2018-03-14T12:44:07.315Z,4.27
2018-03-14T12:46:34.820Z,3.23
2018-03-14T12:49:02.574Z,7.23
2018-03-14T12:51:30.273Z,7.97
2018-03-14T12:53:57.794Z,5.23
2018-03-14T12:56:25.580Z,2.90
2018-03-14T12:58:53.385Z,2.73
2018-03-14T13:01:21.085Z,4.00
2018-03-14T13:03:48.574Z,4.83
2018-03-14T13:06:16.053Z,2.63
2018-03-14T13:08:43.802Z,3.60
2018-03-14T13:11:11.302Z,2.57
2018-03-14T13:13:38.783Z,1.37
2018-03-14T13:16:06.266Z,5.70
2018-03-14T13:18:33.742Z,3.37
2018-03-14T13:21:01.232Z,4.17
2018-03-14T13:23:28.730Z,3.30
2018-03-14T13:25:56.829Z,12.67
2018-03-14T13:28:24.491Z,4.30
2018-03-14T13:30:52.146Z,8.17
2018-03-14T13:33:19.795Z,3.90
2018-03-14T13:35:47.294Z,10.60
2018-03-14T13:38:14.782Z,5.03
2018-03-14T13:40:42.273Z,2.00
2018-03-14T13:43:09.793Z,1.50
2018-03-14T13:45:37.275Z,2.90
2018-03-14T13:48:04.926Z,2.57
2018-03-14T13:50:32.535Z,1.33
2018-03-14T13:53:00.015Z,3.60
2018-03-14T13:55:27.498Z,4.97
2018-03-14T13:57:55.213Z,4.57
2018-03-14T14:00:23.002Z,5.30
2018-03-14T14:02:50.504Z,6.10
2018-03-14T14:05:18.033Z,16.17
2018-03-14T14:07:45.541Z,1.67
2018-03-14T14:10:13.168Z,2.10
2018-03-14T14:12:40.679Z,2.87
2018-03-14T14:15:08.329Z,2.37
2018-03-14T14:17:35.804Z,2.67
2018-03-14T14:20:03.638Z,1.13
2018-03-14T14:22:31.295Z,2.80
2018-03-14T14:24:58.794Z,4.77
2018-03-14T14:27:26.599Z,1.60
2018-03-14T14:29:54.433Z,4.60
2018-03-14T14:32:21.913Z,4.70
2018-03-14T14:34:49.512Z,2.67
2018-03-14T14:37:17.167Z,4.13
2018-03-14T14:39:44.670Z,5.60
2018-03-14T14:42:12.175Z,1.40
2018-03-14T14:44:39.669Z,13.43
2018-03-14T14:47:07.192Z,6.40
2018-03-14T14:49:34.684Z,2.03
2018-03-14T14:52:02.500Z,2.63
2018-03-14T14:54:30.198Z,2.23
2018-03-14T14:56:57.805Z,4.20
2018-03-14T14:59:25.408Z,12.67
2018-03-14T15:01:52.945Z,5.43
2018-03-14T15:04:20.565Z,7.90
2018-03-14T15:06:48.266Z,4.90
2018-03-14T15:09:16.069Z,3.50
2018-03-14T15:11:43.773Z,6.07
2018-03-14T15:14:11.278Z,8.20
2018-03-14T15:16:38.765Z,7.67
2018-03-14T15:19:06.488Z,0.83
2018-03-14T15:21:34.354Z,1.07
2018-03-14T15:24:02.189Z,2.90
2018-03-14T15:26:30.039Z,0.80
2018-03-14T15:28:57.890Z,0.83
2018-03-14T15:31:25.738Z,5.73
2018-03-14T15:33:53.437Z,1.03
2018-03-14T15:36:20.966Z,1.33
2018-03-14T15:38:48.497Z,2.60
2018-03-14T15:41:16.210Z,1.57
2018-03-14T15:43:44.004Z,5.37
2018-03-14T15:46:11.519Z,3.23
2018-03-14T15:48:39.046Z,5.63
2018-03-14T15:51:06.557Z,6.90
2018-03-14T15:53:34.061Z,1.47
2018-03-14T15:56:01.598Z,3.43
2018-03-14T15:58:29.098Z,1.17
2018-03-14T16:00:56.682Z,2.73
2018-03-14T16:03:24.186Z,0.90
2018-03-14T16:05:51.729Z,3.53
2018-03-14T16:08:19.361Z,1.90
2018-03-14T16:10:47.016Z,2.23
2018-03-14T16:13:14.667Z,2.93
2018-03-14T16:15:42.371Z,1.07
2018-03-14T16:18:10.170Z,2.40
2018-03-14T16:20:37.870Z,1.10
2018-03-14T16:23:05.345Z,3.67
2018-03-14T16:25:32.891Z,3.63
2018-03-14T16:28:00.393Z,2.87
2018-03-14T16:30:27.882Z,3.07
2018-03-14T16:32:55.382Z,3.07
2018-03-14T16:35:23.163Z,2.97
2018-03-14T16:37:50.811Z,1.03
2018-03-14T16:40:18.313Z,3.73
2018-03-14T16:42:46.040Z,3.60
2018-03-14T16:45:13.532Z,3.57
2018-03-14T16:47:41.035Z,1.80
2018-03-14T16:50:08.537Z,4.03
2018-03-14T16:52:36.513Z,1.57
2018-03-14T16:55:04.186Z,3.33
2018-03-14T16:57:31.888Z,2.43
2018-03-14T16:59:59.376Z,1.90
2018-03-14T17:02:27.225Z,1.33
2018-03-14T17:04:54.720Z,1.00
2018-03-14T17:07:22.456Z,1.00
2018-03-14T17:09:50.558Z,1.37
2018-03-14T17:12:18.202Z,3.60
2018-03-14T17:14:45.682Z,2.10
2018-03-14T17:17:13.195Z,2.03
2018-03-14T17:19:40.680Z,1.53
2018-03-14T17:22:08.421Z,3.90
2018-03-14T17:24:36.031Z,1.93
2018-03-14T17:27:03.880Z,1.20
2018-03-14T17:29:31.619Z,1.20
2018-03-14T17:31:59.579Z,1.27
2018-03-14T17:34:27.627Z,4.37
2018-03-14T17:36:55.672Z,1.37
2018-03-14T17:39:23.719Z,1.73
2018-03-14T17:41:51.963Z,3.20
2018-03-14T17:44:19.974Z,2.23
2018-03-14T17:46:48.647Z,1.67
2018-03-14T17:49:17.288Z,2.17
2018-03-14T17:51:46.315Z,2.90
2018-03-14T17:54:15.152Z,7.93
2018-03-14T17:56:44.177Z,1.53
2018-03-14T17:59:13.010Z,1.17
2018-03-14T18:01:42.042Z,5.60
2018-03-14T18:04:10.876Z,2.57
2018-03-14T18:06:39.707Z,4.63
2018-03-14T18:09:08.292Z,1.50
2018-03-14T18:11:36.982Z,1.83
2018-03-14T18:14:05.870Z,2.80
2018-03-14T18:16:34.840Z,1.83
2018-03-14T18:19:03.675Z,8.63
2018-03-14T18:21:32.513Z,5.63
2018-03-14T18:24:00.324Z,6.37
2018-03-14T18:26:28.797Z,5.83
2018-03-14T18:28:56.506Z,2.37
2018-03-14T18:31:24.238Z,5.00
2018-03-14T18:33:52.027Z,4.57
2018-03-14T18:36:19.760Z,3.20
2018-03-14T18:38:47.852Z,6.67
2018-03-14T18:41:15.897Z,4.97
2018-03-14T18:43:43.835Z,3.27
2018-03-14T18:46:12.315Z,6.03
2018-03-14T18:48:40.397Z,2.47
2018-03-14T18:51:08.872Z,1.97
2018-03-14T18:53:37.509Z,4.23
2018-03-14T18:56:05.669Z,2.57
2018-03-14T18:58:33.539Z,2.53
2018-03-14T19:01:01.647Z,2.77
2018-03-14T19:03:29.652Z,2.23
2018-03-14T19:05:57.884Z,4.50
2018-03-14T19:08:25.596Z,4.83
2018-03-14T19:10:53.834Z,4.07
2018-03-14T19:13:21.826Z,3.67
2018-03-14T19:15:49.927Z,3.57
2018-03-14T19:18:18.175Z,3.57
2018-03-14T19:20:45.962Z,4.30
2018-03-14T19:23:13.740Z,5.37
2018-03-14T19:25:42.701Z,5.27
2018-03-14T19:28:10.544Z,4.33
2018-03-14T19:30:39.391Z,2.40
2018-03-14T19:33:08.225Z,2.93
2018-03-14T19:35:36.068Z,3.03
2018-03-14T19:38:03.919Z,6.70
2018-03-14T19:40:31.736Z,3.93
2018-03-14T19:43:00.608Z,4.27
2018-03-14T19:45:28.436Z,2.23
2018-03-14T19:47:56.270Z,4.53
2018-03-14T19:50:24.887Z,8.70
2018-03-14T19:52:52.722Z,5.27
2018-03-14T19:55:20.542Z,3.60
2018-03-14T19:57:49.282Z,12.60
2018-03-14T20:00:17.109Z,6.10
2018-03-14T20:02:44.992Z,9.07
2018-03-14T20:05:13.419Z,5.57
2018-03-14T20:07:41.406Z,4.70
2018-03-14T20:10:09.240Z,3.57
2018-03-14T20:12:37.111Z,3.83
2018-03-14T20:15:04.984Z,1.63
2018-03-14T20:17:33.848Z,2.77
2018-03-14T20:20:02.885Z,4.43
2018-03-14T20:22:32.103Z,3.60
2018-03-14T20:25:00.945Z,3.10
2018-03-14T20:27:29.480Z,2.83
2018-03-14T20:29:58.588Z,7.70
2018-03-14T20:32:27.455Z,2.57
2018-03-14T20:34:55.985Z,4.87
2018-03-14T20:37:24.729Z,2.20
2018-03-14T20:39:53.350Z,3.67
2018-03-14T20:42:22.188Z,3.30
2018-03-14T20:44:50.749Z,7.30
2018-03-14T20:47:19.443Z,3.27
2018-03-14T20:49:48.492Z,3.20
2018-03-14T20:52:17.918Z,4.63
2018-03-14T20:54:46.463Z,3.60
2018-03-14T20:57:15.778Z,3.87
2018-03-14T20:59:44.727Z,3.43
2018-03-14T21:02:13.634Z,6.50
2018-03-14T21:04:42.793Z,5.20
2018-03-14T21:07:11.690Z,6.90
2018-03-14T21:09:39.884Z,14.13
2018-03-14T21:12:08.569Z,5.43
2018-03-14T21:14:37.406Z,4.43
2018-03-14T21:17:05.945Z,7.60
2018-03-14T21:19:34.876Z,8.63
2018-03-14T21:22:03.710Z,5.67
2018-03-14T21:24:32.251Z,2.07
2018-03-14T21:27:00.982Z,4.23
2018-03-14T21:29:29.819Z,3.70
2018-03-14T21:31:58.841Z,4.80
2018-03-14T21:34:27.486Z,5.30
2018-03-14T21:36:56.021Z,7.70
2018-03-14T21:39:24.751Z,3.37
2018-03-14T21:41:53.584Z,6.53
2018-03-14T21:44:22.422Z,4.67
2018-03-14T21:46:51.274Z,3.23
2018-03-14T21:49:19.099Z,6.03
2018-03-14T21:51:47.650Z,1.90
2018-03-14T21:54:16.571Z,2.97
2018-03-14T21:56:45.211Z,5.57
2018-03-14T21:59:14.827Z,6.27
2018-03-14T22:01:43.694Z,4.97
2018-03-14T22:04:12.500Z,2.93
2018-03-14T22:06:41.334Z,3.07
2018-03-14T22:09:09.580Z,3.67
2018-03-14T22:11:38.402Z,2.27
2018-03-14T22:14:06.123Z,2.60
2018-03-14T22:16:34.278Z,4.10
2018-03-14T22:19:02.151Z,4.20
2018-03-14T22:21:29.999Z,2.67
2018-03-14T22:23:57.654Z,2.00
2018-03-14T22:26:25.155Z,5.30
2018-03-14T22:28:53.155Z,5.50
2018-03-14T22:31:20.674Z,2.80
2018-03-14T22:33:48.168Z,7.03
2018-03-14T22:36:15.698Z,5.90
2018-03-14T22:38:43.424Z,8.53
2018-03-14T22:41:11.030Z,4.73
2018-03-14T22:43:38.684Z,6.30
2018-03-14T22:46:06.440Z,9.40
2018-03-14T22:48:34.193Z,3.43
2018-03-14T22:51:02.038Z,12.53
2018-03-14T22:53:29.539Z,5.33
2018-03-14T22:55:57.030Z,4.83
2018-03-14T22:58:24.650Z,3.87
2018-03-14T23:00:52.256Z,5.73
2018-03-14T23:03:19.786Z,4.23
2018-03-14T23:05:47.415Z,7.37
2018-03-14T23:08:15.022Z,7.40
2018-03-14T23:10:42.673Z,5.73
2018-03-14T23:13:10.383Z,7.00
2018-03-14T23:15:38.178Z,6.37
2018-03-14T23:18:05.882Z,5.37
2018-03-14T23:20:33.407Z,5.67
2018-03-14T23:23:00.924Z,2.10
2018-03-14T23:25:28.642Z,2.67
2018-03-14T23:27:56.293Z,2.73
2018-03-14T23:30:24.097Z,3.70
2018-03-14T23:32:51.796Z,3.77
2018-03-14T23:35:19.453Z,1.30
2018-03-14T23:37:46.950Z,1.63
2018-03-14T23:40:14.562Z,1.70
2018-03-14T23:42:42.370Z,3.23
2018-03-14T23:45:09.871Z,4.10
2018-03-14T23:47:37.522Z,4.47
2018-03-14T23:50:05.211Z,1.63
2018-03-14T23:52:32.831Z,1.67
2018-03-14T23:55:00.436Z,3.07
2018-03-14T23:57:28.091Z,1.00
2018-03-14T23:59:55.789Z,2.80
